createdAt,value
2023-02-06T00:00:50.920Z,102376.13
2023-02-06T00:06:00.240Z,102326.88
2023-02-06T00:11:05.611Z,102448.06
2023-02-06T00:16:18.184Z,102447.31
2023-02-06T00:21:24.775Z,102376.22
2023-02-06T00:26:28.132Z,102376.78
2023-02-06T00:31:30.770Z,102375.25
2023-02-06T00:36:34.186Z,102387.78
2023-02-06T00:41:40.060Z,102398.56
2023-02-06T00:46:43.842Z,102418.47
2023-02-06T00:51:47.296Z,102418.50
2023-02-06T00:56:50.719Z,102393.75
2023-02-06T01:01:53.625Z,102430.75
2023-02-06T01:06:56.570Z,102376.31
2023-02-06T01:11:59.112Z,102394.75
2023-02-06T01:17:02.331Z,102462.38
2023-02-06T01:22:05.730Z,102430.66
2023-02-06T01:27:08.884Z,102472.50
2023-02-06T01:32:11.888Z,102464.97
2023-02-06T01:37:15.193Z,102471.28
2023-02-06T01:42:18.431Z,102363.56
2023-02-06T01:47:21.751Z,102321.53
2023-02-06T01:52:30.775Z,102447.00
2023-02-06T01:57:35.172Z,102393.25
2023-02-06T02:02:43.776Z,102431.78
2023-02-06T02:07:55.579Z,102469.34
2023-02-06T02:12:59.175Z,102381.19
2023-02-06T02:18:29.499Z,102324.72
2023-02-06T02:23:45.203Z,102498.38
2023-02-06T02:29:28.041Z,102458.22
2023-02-06T02:35:16.910Z,102459.50
2023-02-06T02:40:28.926Z,102487.16
2023-02-06T02:46:03.170Z,102486.59
2023-02-06T02:51:07.660Z,102433.03
2023-02-06T02:56:22.226Z,102369.19
2023-02-06T03:01:35.686Z,102499.22
2023-02-06T03:06:57.134Z,102491.13
2023-02-06T03:12:11.313Z,102501.03
2023-02-06T03:17:19.677Z,102412.25
2023-02-06T03:22:25.115Z,102472.59
2023-02-06T03:27:30.131Z,102489.41
2023-02-06T03:32:37.079Z,102493.09
2023-02-06T03:37:40.093Z,102418.28
2023-02-06T03:42:49.560Z,102336.97
2023-02-06T03:47:56.274Z,102482.56
2023-02-06T03:53:03.090Z,102410.69
2023-02-06T03:58:10.912Z,102432.72
2023-02-06T04:03:15.112Z,102462.84
2023-02-06T04:08:18.404Z,102415.88
2023-02-06T04:13:23.024Z,102528.94
2023-02-06T04:18:25.652Z,102524.41
2023-02-06T04:23:28.341Z,102504.34
2023-02-06T04:28:31.055Z,102446.13
2023-02-06T04:33:33.724Z,102483.44
2023-02-06T04:38:37.450Z,102520.47
2023-02-06T04:43:43.591Z,102496.22
2023-02-06T04:48:46.577Z,102511.00
2023-02-06T04:53:52.764Z,102497.16
2023-02-06T04:58:55.171Z,102524.06
2023-02-06T05:03:57.527Z,102510.59
2023-02-06T05:09:00.748Z,102477.75
2023-02-06T05:14:03.905Z,102544.31
2023-02-06T05:19:07.170Z,102518.00
2023-02-06T05:24:10.637Z,102524.09
2023-02-06T05:29:13.879Z,102538.75
2023-02-06T05:34:16.965Z,102464.81
2023-02-06T05:39:36.572Z,102548.22
2023-02-06T05:44:49.479Z,102474.38
2023-02-06T05:49:53.521Z,102538.78
2023-02-06T05:54:57.315Z,102530.25
2023-02-06T06:00:10.522Z,102521.06
2023-02-06T06:05:16.520Z,102428.56
2023-02-06T06:10:20.390Z,102464.69
2023-02-06T06:15:23.582Z,102549.78
2023-02-06T06:20:26.063Z,102534.16
2023-02-06T06:25:28.953Z,102554.50
2023-02-06T06:30:35.632Z,102542.97
2023-02-06T06:35:38.719Z,102533.50
2023-02-06T06:40:42.181Z,102552.25
2023-02-06T06:45:49.292Z,102548.72
2023-02-06T06:50:52.259Z,102579.38
2023-02-06T06:55:55.293Z,102541.97
2023-02-06T07:00:58.265Z,102554.31
2023-02-06T07:06:01.300Z,102574.44
2023-02-06T07:11:06.380Z,102577.22
2023-02-06T07:16:10.266Z,102541.75
2023-02-06T07:21:17.227Z,102568.88
2023-02-06T07:26:21.714Z,102563.66
2023-02-06T07:31:25.990Z,102581.97
2023-02-06T07:36:34.443Z,102559.94
2023-02-06T07:41:42.274Z,102589.47
2023-02-06T07:46:49.168Z,102575.28
2023-02-06T07:51:52.366Z,102571.81
2023-02-06T07:56:55.517Z,102575.91
2023-02-06T08:02:20.511Z,102572.75
2023-02-06T08:07:23.861Z,102565.72
2023-02-06T08:12:27.172Z,102558.25
2023-02-06T08:17:59.799Z,102582.97
2023-02-06T08:23:04.563Z,102571.28
2023-02-06T08:28:08.556Z,102475.28
2023-02-06T08:33:14.483Z,102563.09
2023-02-06T08:38:17.431Z,102441.31
2023-02-06T08:43:50.629Z,102565.06
2023-02-06T08:49:14.964Z,102465.16
2023-02-06T08:54:23.553Z,102570.41
2023-02-06T08:59:30.222Z,102505.09
2023-02-06T09:04:35.603Z,102433.97
2023-02-06T09:09:38.637Z,102427.78
2023-02-06T09:14:50.823Z,102377.25
2023-02-06T09:19:55.992Z,102498.56
2023-02-06T09:24:59.078Z,102543.34
2023-02-06T09:30:01.709Z,102552.16
2023-02-06T09:35:07.513Z,102548.50
2023-02-06T09:40:13.747Z,102541.50
2023-02-06T09:45:29.713Z,102490.56
2023-02-06T09:50:47.385Z,102484.28
2023-02-06T09:56:13.922Z,102513.09
2023-02-06T10:01:24.734Z,102504.59
2023-02-06T10:06:36.624Z,102505.31
2023-02-06T10:12:21.016Z,102304.88
2023-02-06T10:18:02.927Z,102312.50
2023-02-06T10:24:00.451Z,102503.13
2023-02-06T10:29:06.727Z,102388.63
2023-02-06T10:34:30.248Z,102513.16
2023-02-06T10:40:14.332Z,102516.94
2023-02-06T10:45:49.174Z,102496.44
2023-02-06T10:51:18.229Z,102481.81
2023-02-06T10:56:28.723Z,102446.91
2023-02-06T11:01:45.462Z,102472.88
2023-02-06T11:06:48.438Z,102419.06
2023-02-06T11:11:56.121Z,102422.00
2023-02-06T11:17:33.038Z,102459.03
2023-02-06T11:22:51.099Z,102458.75
2023-02-06T11:27:58.492Z,102408.78
2023-02-06T11:33:31.646Z,102455.53
2023-02-06T11:38:35.791Z,102426.22
2023-02-06T11:43:48.620Z,102463.25
2023-02-06T11:49:35.167Z,102470.34
2023-02-06T11:54:54.895Z,102464.72
2023-02-06T12:00:35.230Z,102458.94
2023-02-06T12:05:46.457Z,102442.53
2023-02-06T12:11:02.598Z,102382.41
2023-02-06T12:16:08.728Z,102451.63
2023-02-06T12:21:25.928Z,102480.50
2023-02-06T12:26:36.267Z,102475.66
2023-02-06T12:31:50.412Z,102465.19
2023-02-06T12:37:16.258Z,102449.13
2023-02-06T12:42:44.438Z,102464.72
2023-02-06T12:48:01.149Z,102411.69
2023-02-06T12:53:21.696Z,102467.28
2023-02-06T12:58:58.813Z,102273.41
2023-02-06T13:04:15.181Z,102328.13
2023-02-06T13:09:29.260Z,102396.13
2023-02-06T13:14:45.909Z,102449.22
2023-02-06T13:20:09.312Z,102469.88
2023-02-06T13:25:31.517Z,102477.44
2023-02-06T13:30:36.200Z,102482.78
2023-02-06T13:35:59.432Z,102482.03
2023-02-06T13:41:16.621Z,102492.47
2023-02-06T13:46:34.310Z,102497.06
2023-02-06T13:51:51.646Z,102492.88
2023-02-06T13:57:14.339Z,102486.44
2023-02-06T14:02:23.664Z,102490.69
2023-02-06T14:08:02.527Z,102498.91
2023-02-06T14:13:08.535Z,102502.66
2023-02-06T14:18:38.654Z,102511.34
2023-02-06T14:23:59.786Z,102510.50
2023-02-06T14:29:14.997Z,102509.59
2023-02-06T14:34:30.575Z,102526.06
2023-02-06T14:39:54.505Z,102550.47
2023-02-06T14:45:02.403Z,102517.84
2023-02-06T14:50:07.640Z,102485.47
2023-02-06T14:55:29.480Z,102538.16
2023-02-06T15:00:33.080Z,102548.84
2023-02-06T15:05:36.272Z,102553.22
2023-02-06T15:10:40.195Z,102546.78
2023-02-06T15:15:54.676Z,102549.91
2023-02-06T15:21:17.677Z,102555.19
2023-02-06T15:27:00.966Z,102562.50
2023-02-06T15:32:16.950Z,102567.44
2023-02-06T15:37:22.420Z,102569.66
2023-02-06T15:42:24.920Z,102557.25
2023-02-06T15:47:28.680Z,102578.34
2023-02-06T15:52:43.114Z,102577.91
2023-02-06T15:57:46.043Z,102569.81
2023-02-06T16:02:48.599Z,102575.66
2023-02-06T16:07:51.666Z,102592.00
2023-02-06T16:12:55.918Z,102590.47
2023-02-06T16:18:01.553Z,102589.97
2023-02-06T16:23:27.734Z,102606.78
2023-02-06T16:28:30.790Z,102556.97
2023-02-06T16:33:33.102Z,102601.75
2023-02-06T16:38:35.503Z,102582.75
2023-02-06T16:43:37.849Z,102580.28
2023-02-06T16:48:40.755Z,102535.44
2023-02-06T16:53:43.925Z,102541.81
2023-02-06T16:58:47.378Z,102554.44
2023-02-06T17:03:50.098Z,102556.56
2023-02-06T17:08:54.740Z,102590.28
2023-02-06T17:13:57.474Z,102599.88
2023-02-06T17:19:00.911Z,102607.50
2023-02-06T17:24:03.552Z,102595.00
2023-02-06T17:29:06.983Z,102598.97
2023-02-06T17:34:10.966Z,102605.22
2023-02-06T17:39:13.684Z,102545.22
2023-02-06T17:44:19.015Z,102575.06
2023-02-06T17:49:21.537Z,102576.66
2023-02-06T17:54:23.819Z,102551.63
2023-02-06T17:59:26.278Z,102577.03
2023-02-06T18:04:29.079Z,102572.25
2023-02-06T18:09:31.454Z,102575.91
2023-02-06T18:14:35.725Z,102540.22
2023-02-06T18:19:42.682Z,102571.63
2023-02-06T18:24:45.703Z,102583.53
2023-02-06T18:29:52.908Z,102584.75
2023-02-06T18:34:55.234Z,102582.47
2023-02-06T18:39:57.947Z,102574.50
2023-02-06T18:45:02.121Z,102586.81
2023-02-06T18:50:07.017Z,102560.97
2023-02-06T18:55:09.710Z,102586.94
2023-02-06T19:00:14.480Z,102573.16
2023-02-06T19:05:16.989Z,102570.50
2023-02-06T19:10:20.714Z,102583.97
2023-02-06T19:15:23.613Z,102588.16
2023-02-06T19:20:26.150Z,102571.53
2023-02-06T19:25:28.567Z,102570.97
2023-02-06T19:30:32.464Z,102570.03
2023-02-06T19:35:34.730Z,102569.22
2023-02-06T19:40:37.981Z,102552.88
2023-02-06T19:45:40.676Z,102585.13
2023-02-06T19:50:43.127Z,102576.06
2023-02-06T19:55:49.443Z,102509.34
2023-02-06T20:00:54.826Z,102533.03
2023-02-06T20:06:01.577Z,102545.59
2023-02-06T20:11:06.564Z,102519.09
2023-02-06T20:16:16.458Z,102557.03
2023-02-06T20:21:31.379Z,102561.91
2023-02-06T20:26:37.623Z,102557.47
2023-02-06T20:31:40.598Z,102568.84
2023-02-06T20:36:45.258Z,102539.47
2023-02-06T20:41:49.635Z,102555.44
2023-02-06T20:46:52.821Z,102520.13
2023-02-06T20:51:55.933Z,102557.13
2023-02-06T20:57:00.853Z,102515.44
2023-02-06T21:02:03.290Z,102548.41
2023-02-06T21:07:07.285Z,102530.31
2023-02-06T21:12:10.084Z,102494.53
2023-02-06T21:17:12.496Z,102499.44
2023-02-06T21:22:14.868Z,102523.41
2023-02-06T21:27:17.276Z,102529.00
2023-02-06T21:32:21.374Z,102515.03
2023-02-06T21:37:24.068Z,102544.56
2023-02-06T21:42:28.397Z,102532.63
2023-02-06T21:47:31.570Z,102559.28
2023-02-06T21:52:37.547Z,102542.41
2023-02-06T21:57:40.029Z,102553.94
2023-02-06T22:02:42.622Z,102556.03
2023-02-06T22:07:45.142Z,102562.53
2023-02-06T22:12:51.049Z,102568.91
2023-02-06T22:17:53.454Z,102581.84
2023-02-06T22:22:57.065Z,102571.50
2023-02-06T22:27:59.888Z,102586.28
2023-02-06T22:33:03.418Z,102605.53
2023-02-06T22:38:05.872Z,102609.81
2023-02-06T22:43:08.779Z,102603.19
2023-02-06T22:48:11.884Z,102594.94
2023-02-06T22:53:30.749Z,102595.00
2023-02-06T22:58:33.478Z,102608.81
2023-02-06T23:03:36.050Z,102611.53
2023-02-06T23:08:40.010Z,102623.25
2023-02-06T23:13:43.765Z,102607.78
2023-02-06T23:18:46.874Z,102633.66
2023-02-06T23:23:49.942Z,102616.31
2023-02-06T23:28:52.482Z,102505.06
2023-02-06T23:33:55.311Z,102616.28
2023-02-06T23:38:57.694Z,102615.53
2023-02-06T23:44:05.818Z,102633.13
2023-02-06T23:49:09.614Z,102635.81
2023-02-06T23:54:13.071Z,102595.91
2023-02-06T23:59:15.543Z,102601.50
